Time,TemperatureF,DewpointF,PressureIn,WindDirection,WindDirectionDegrees,WindSpeedMPH,WindSpeedGustMPH,Humidity,HourlyPrecipIn,Conditions,Clouds,dailyrainin,SoftwareType,DateUTC
2013-02-25 00:01:00,27.0,25.0,30.13,NW,321,0.0,0.0,92,0.00,,,0.07,,2013-02-25 05:01:00,
2013-02-25 00:11:00,27.0,25.0,30.13,NW,321,0.0,0.0,92,0.00,,,0.07,,2013-02-25 05:11:00,
2013-02-25 00:22:00,26.0,24.0,30.13,NW,321,0.0,0.0,92,0.00,,,0.07,,2013-02-25 05:22:00,
2013-02-25 00:31:00,26.0,24.0,30.13,NW,321,0.0,0.0,91,0.00,,,0.07,,2013-02-25 05:31:00,
2013-02-25 00:41:00,26.0,24.0,30.13,NW,321,0.0,0.0,91,0.00,,,0.07,,2013-02-25 05:41:00,
2013-02-25 00:52:00,26.0,24.0,30.13,NW,321,0.0,0.0,92,0.00,,,0.07,,2013-02-25 05:52:00,
2013-02-25 01:02:00,26.0,24.0,30.13,NW,321,0.0,0.0,92,0.00,,,0.07,,2013-02-25 06:02:00,
2013-02-25 01:11:00,26.0,24.0,30.13,NW,321,0.0,0.0,92,0.00,,,0.07,,2013-02-25 06:11:00,
2013-02-25 01:21:00,26.0,24.0,30.13,NW,321,0.0,0.0,92,0.00,,,0.07,,2013-02-25 06:21:00,
2013-02-25 01:31:00,26.0,24.0,30.13,NW,321,0.0,0.0,92,0.00,,,0.07,,2013-02-25 06:31:00,
2013-02-25 01:41:00,26.0,24.0,30.13,NW,321,0.0,0.0,92,0.00,,,0.07,,2013-02-25 06:41:00,
2013-02-25 01:52:00,25.0,23.0,30.12,NW,321,0.0,0.0,92,0.00,,,0.07,,2013-02-25 06:52:00,
2013-02-25 02:01:00,25.0,23.0,30.12,NW,321,0.0,0.0,92,0.00,,,0.07,,2013-02-25 07:01:00,
2013-02-25 02:11:00,25.0,23.0,30.11,NW,321,0.0,0.0,92,0.00,,,0.07,,2013-02-25 07:11:00,
2013-02-25 02:21:00,25.0,23.0,30.11,NW,321,0.0,0.0,92,0.00,,,0.07,,2013-02-25 07:21:00,
2013-02-25 02:31:00,25.0,23.0,30.11,NW,321,0.0,0.0,93,0.00,,,0.07,,2013-02-25 07:31:00,
2013-02-25 02:41:00,25.0,23.0,30.11,NW,321,0.0,0.0,93,0.00,,,0.07,,2013-02-25 07:41:00,
2013-02-25 02:52:00,25.0,23.0,30.12,NW,321,0.0,0.0,93,0.00,,,0.07,,2013-02-25 07:52:00,
2013-02-25 03:01:00,25.0,23.0,30.12,NW,321,0.0,0.0,93,0.00,,,0.07,,2013-02-25 08:01:00,
2013-02-25 03:11:00,25.0,23.0,30.12,NW,321,0.0,0.0,93,0.00,,,0.07,,2013-02-25 08:11:00,
2013-02-25 03:21:00,25.0,23.0,30.12,NW,321,0.0,0.0,93,0.00,,,0.07,,2013-02-25 08:21:00,
2013-02-25 03:31:00,24.0,22.0,30.12,NW,321,0.0,0.0,93,0.00,,,0.07,,2013-02-25 08:31:00,
2013-02-25 03:41:00,24.0,22.0,30.12,NW,321,0.0,0.0,93,0.00,,,0.07,,2013-02-25 08:41:00,
2013-02-25 03:52:00,24.0,22.0,30.11,NW,321,0.0,0.0,93,0.00,,,0.07,,2013-02-25 08:52:00,
2013-02-25 04:01:00,24.0,22.0,30.12,NW,321,0.0,0.0,93,0.00,,,0.07,,2013-02-25 09:01:00,
2013-02-25 04:12:00,24.0,22.0,30.12,NW,321,0.0,0.0,93,0.00,,,0.07,,2013-02-25 09:12:00,
2013-02-25 04:21:00,24.0,22.0,30.12,NW,321,0.0,0.0,93,0.00,,,0.07,,2013-02-25 09:21:00,
2013-02-25 04:31:00,24.0,22.0,30.12,NW,321,0.0,0.0,93,0.00,,,0.07,,2013-02-25 09:31:00,
2013-02-25 04:41:00,24.0,22.0,30.12,NW,321,0.0,0.0,93,0.00,,,0.07,,2013-02-25 09:41:00,
2013-02-25 04:52:00,24.0,22.0,30.11,NW,321,0.0,0.0,93,0.00,,,0.07,,2013-02-25 09:52:00,
2013-02-25 05:01:00,24.0,22.0,30.12,NW,321,0.0,0.0,93,0.00,,,0.07,,2013-02-25 10:01:00,
2013-02-25 05:11:00,24.0,22.0,30.13,NW,321,0.0,0.0,93,0.00,,,0.07,,2013-02-25 10:11:00,
2013-02-25 05:21:00,24.0,22.0,30.13,NW,321,0.0,0.0,93,0.00,,,0.07,,2013-02-25 10:21:00,
2013-02-25 05:31:00,23.0,22.0,30.14,NW,321,0.0,0.0,94,0.00,,,0.07,,2013-02-25 10:31:00,
2013-02-25 05:42:00,23.0,22.0,30.14,NW,321,0.0,0.0,94,0.00,,,0.07,,2013-02-25 10:42:00,
2013-02-25 05:52:00,24.0,23.0,30.13,NW,321,0.0,0.0,94,0.00,,,0.07,,2013-02-25 10:52:00,
2013-02-25 06:01:00,23.0,22.0,30.13,NW,321,0.0,0.0,94,0.00,,,0.07,,2013-02-25 11:01:00,
2013-02-25 06:11:00,23.0,22.0,30.13,NW,321,0.0,0.0,94,0.00,,,0.07,,2013-02-25 11:11:00,
2013-02-25 06:21:00,23.0,22.0,30.14,NW,321,0.0,0.0,94,0.00,,,0.07,,2013-02-25 11:21:00,
2013-02-25 06:32:00,23.0,22.0,30.15,NW,321,0.0,0.0,94,0.00,,,0.07,,2013-02-25 11:32:00,
2013-02-25 06:42:00,23.0,22.0,30.15,NW,321,0.0,0.0,94,0.00,,,0.07,,2013-02-25 11:42:00,
2013-02-25 06:52:00,23.0,21.0,30.14,NW,321,0.0,0.0,93,0.00,,,0.07,,2013-02-25 11:52:00,
2013-02-25 07:02:00,23.0,22.0,30.14,NW,321,0.0,0.0,94,0.00,,,0.07,,2013-02-25 12:02:00,
2013-02-25 07:11:00,23.0,22.0,30.14,NW,321,0.0,0.0,94,0.00,,,0.07,,2013-02-25 12:11:00,
2013-02-25 07:21:00,23.0,22.0,30.14,NW,321,0.0,0.0,94,0.00,,,0.07,,2013-02-25 12:21:00,
2013-02-25 07:32:00,23.0,22.0,30.15,NW,321,0.0,0.0,94,0.00,,,0.07,,2013-02-25 12:32:00,
2013-02-25 07:42:00,23.0,22.0,30.15,NW,321,0.0,0.0,94,0.00,,,0.07,,2013-02-25 12:42:00,
2013-02-25 07:55:00,23.0,22.0,30.15,NW,321,0.0,0.0,94,0.00,,,0.07,,2013-02-25 12:55:00,
2013-02-25 08:02:00,23.0,22.0,30.14,NW,321,0.0,1.0,94,0.00,,,0.07,,2013-02-25 13:02:00,
2013-02-25 08:12:00,23.0,22.0,30.14,NW,321,0.0,1.0,94,0.00,,,0.07,,2013-02-25 13:12:00,
2013-02-25 08:22:00,23.0,22.0,30.15,NW,321,0.0,0.0,94,0.00,,,0.07,,2013-02-25 13:22:00,
2013-02-25 08:32:00,24.0,23.0,30.14,NW,321,0.0,2.0,95,0.00,,,0.07,,2013-02-25 13:32:00,
2013-02-25 08:42:00,24.0,23.0,30.14,NW,321,0.0,2.0,95,0.00,,,0.07,,2013-02-25 13:42:00,
2013-02-25 08:52:00,25.0,24.0,30.13,NW,321,0.0,3.0,95,0.00,,,0.07,,2013-02-25 13:52:00,
2013-02-25 09:03:00,28.0,27.0,30.14,SSE,157,1.0,5.0,96,0.00,,,0.07,,2013-02-25 14:03:00,
2013-02-25 09:17:00,28.0,27.0,30.14,SSE,157,1.0,5.0,96,0.00,,,0.07,,2013-02-25 14:17:00,
2013-02-25 09:32:00,33.0,29.0,30.13,SE,138,2.0,8.0,85,0.00,,,0.07,,2013-02-25 14:32:00,
2013-02-25 09:42:00,33.0,29.0,30.13,SE,138,2.0,8.0,85,0.00,,,0.07,,2013-02-25 14:42:00,
2013-02-25 09:52:00,35.0,29.0,30.12,SSW,210,3.0,7.0,79,0.00,,,0.07,,2013-02-25 14:52:00,
2013-02-25 10:02:00,36.0,29.0,30.12,SE,139,3.0,5.0,76,0.00,,,0.07,,2013-02-25 15:02:00,
2013-02-25 10:11:00,36.0,29.0,30.12,SE,139,3.0,5.0,76,0.00,,,0.07,,2013-02-25 15:11:00,
2013-02-25 10:21:00,37.0,29.0,30.13,SE,133,4.0,8.0,73,0.00,,,0.07,,2013-02-25 15:21:00,
2013-02-25 10:32:00,37.0,29.0,30.12,South,171,3.0,7.0,72,0.01,,,0.08,,2013-02-25 15:32:00,
2013-02-25 10:41:00,37.0,29.0,30.12,South,171,3.0,7.0,72,0.01,,,0.08,,2013-02-25 15:41:00,
2013-02-25 10:52:00,38.0,29.0,30.13,SSW,198,4.0,9.0,69,0.01,,,0.08,,2013-02-25 15:52:00,
2013-02-25 11:01:00,38.0,29.0,30.13,SSW,192,3.0,7.0,71,0.01,,,0.08,,2013-02-25 16:01:00,
2013-02-25 11:11:00,38.0,29.0,30.13,SSW,192,3.0,7.0,71,0.01,,,0.08,,2013-02-25 16:11:00,
2013-02-25 11:21:00,39.0,30.0,30.12,SSE,156,4.0,9.0,69,0.01,,,0.08,,2013-02-25 16:21:00,
2013-02-25 11:31:00,39.0,29.0,30.11,South,169,4.0,11.0,68,0.00,,,0.06,,2013-02-25 16:31:00,
2013-02-25 11:42:00,39.0,29.0,30.11,South,169,4.0,11.0,68,0.00,,,0.06,,2013-02-25 16:42:00,
2013-02-25 11:52:00,39.0,29.0,30.11,South,190,2.0,10.0,68,0.00,,,0.06,,2013-02-25 16:52:00,
2013-02-25 12:01:00,40.0,30.0,30.09,South,191,6.0,11.0,67,0.00,,,0.06,,2013-02-25 17:01:00,
2013-02-25 12:11:00,40.0,30.0,30.09,South,191,6.0,11.0,67,0.00,,,0.06,,2013-02-25 17:11:00,
2013-02-25 12:21:00,41.0,31.0,30.09,ESE,111,5.0,12.0,66,0.00,,,0.06,,2013-02-25 17:21:00,
2013-02-25 12:31:00,41.0,31.0,30.10,ESE,112,2.0,10.0,66,0.00,,,0.05,,2013-02-25 17:31:00,
2013-02-25 12:41:00,41.0,31.0,30.10,ESE,112,2.0,10.0,66,0.00,,,0.05,,2013-02-25 17:41:00,
2013-02-25 12:52:00,42.0,30.0,30.11,South,183,4.0,9.0,62,0.00,,,0.05,,2013-02-25 17:52:00,
2013-02-25 13:01:00,42.0,30.0,30.10,SSW,198,3.0,8.0,63,0.00,,,0.05,,2013-02-25 18:01:00,
2013-02-25 13:12:00,42.0,30.0,30.10,SSW,198,3.0,8.0,63,0.00,,,0.05,,2013-02-25 18:12:00,
2013-02-25 13:21:00,43.0,32.0,30.09,SSE,163,3.0,11.0,64,0.00,,,0.05,,2013-02-25 18:21:00,
2013-02-25 13:32:00,44.0,32.0,30.08,SW,225,3.0,9.0,63,0.00,,,0.04,,2013-02-25 18:32:00,
2013-02-25 13:41:00,44.0,32.0,30.08,SW,225,3.0,9.0,63,0.00,,,0.04,,2013-02-25 18:41:00,
2013-02-25 13:52:00,44.0,31.0,30.07,SSE,163,2.0,8.0,60,0.00,,,0.04,,2013-02-25 18:52:00,
2013-02-25 14:01:00,44.0,30.0,30.07,SE,140,4.0,14.0,57,0.00,,,0.04,,2013-02-25 19:01:00,
2013-02-25 14:11:00,44.0,30.0,30.07,SE,140,4.0,14.0,57,0.00,,,0.04,,2013-02-25 19:11:00,
2013-02-25 14:21:00,45.0,30.0,30.06,SSE,167,4.0,8.0,56,0.00,,,0.04,,2013-02-25 19:21:00,
2013-02-25 14:31:00,46.0,32.0,30.05,SSE,159,4.0,8.0,57,0.00,,,0.02,,2013-02-25 19:31:00,
2013-02-25 14:41:00,46.0,32.0,30.05,SSE,159,4.0,8.0,57,0.00,,,0.02,,2013-02-25 19:41:00,
2013-02-25 14:52:00,45.0,32.0,30.05,SE,126,2.0,10.0,59,0.00,,,0.02,,2013-02-25 19:52:00,
2013-02-25 15:01:00,45.0,31.0,30.04,SSE,164,5.0,9.0,58,0.00,,,0.02,,2013-02-25 20:01:00,
2013-02-25 15:11:00,45.0,31.0,30.04,SSE,164,5.0,9.0,58,0.00,,,0.02,,2013-02-25 20:11:00,
2013-02-25 15:21:00,45.0,32.0,30.03,SSW,194,4.0,10.0,60,0.00,,,0.02,,2013-02-25 20:21:00,
2013-02-25 15:31:00,45.0,32.0,30.04,SE,126,5.0,9.0,61,0.00,,,0.02,,2013-02-25 20:31:00,
2013-02-25 15:41:00,45.0,32.0,30.04,SE,126,5.0,9.0,61,0.00,,,0.02,,2013-02-25 20:41:00,
2013-02-25 15:52:00,44.0,31.0,30.03,SE,145,3.0,10.0,61,0.00,,,0.02,,2013-02-25 20:52:00,
2013-02-25 16:01:00,44.0,32.0,30.03,SE,129,4.0,12.0,62,0.00,,,0.02,,2013-02-25 21:01:00,
2013-02-25 16:11:00,44.0,32.0,30.03,SE,129,4.0,12.0,62,0.00,,,0.02,,2013-02-25 21:11:00,
2013-02-25 16:21:00,43.0,32.0,30.03,East,94,3.0,10.0,64,0.00,,,0.02,,2013-02-25 21:21:00,
2013-02-25 16:31:00,43.0,32.0,30.03,South,175,4.0,8.0,65,0.00,,,0.01,,2013-02-25 21:31:00,
2013-02-25 16:42:00,43.0,32.0,30.03,South,175,4.0,8.0,65,0.00,,,0.01,,2013-02-25 21:42:00,
2013-02-25 16:52:00,43.0,32.0,30.01,SSE,159,3.0,7.0,66,0.00,,,0.01,,2013-02-25 21:52:00,
2013-02-25 17:01:00,42.0,31.0,30.02,ESE,115,6.0,12.0,66,0.00,,,0.01,,2013-02-25 22:01:00,
2013-02-25 17:11:00,42.0,31.0,30.02,ESE,115,6.0,12.0,66,0.00,,,0.01,,2013-02-25 22:11:00,
2013-02-25 17:21:00,42.0,32.0,30.02,SSE,165,3.0,9.0,67,0.00,,,0.01,,2013-02-25 22:21:00,
2013-02-25 17:32:00,41.0,32.0,30.02,SE,141,0.0,10.0,69,0.00,,,0.01,,2013-02-25 22:32:00,
2013-02-25 17:42:00,41.0,32.0,30.02,SE,141,0.0,10.0,69,0.00,,,0.01,,2013-02-25 22:42:00,
2013-02-25 17:52:00,41.0,32.0,30.00,ESE,123,1.0,10.0,69,0.00,,,0.01,,2013-02-25 22:52:00,
2013-02-25 18:01:00,41.0,32.0,29.99,NE,44,2.0,6.0,70,0.00,,,0.01,,2013-02-25 23:01:00,
2013-02-25 18:11:00,41.0,32.0,29.99,NE,44,2.0,6.0,70,0.00,,,0.01,,2013-02-25 23:11:00,
2013-02-25 18:22:00,40.0,31.0,29.99,SSE,153,2.0,11.0,71,0.00,,,0.01,,2013-02-25 23:22:00,
2013-02-25 18:31:00,40.0,31.0,29.99,SE,142,1.0,10.0,71,0.00,,,0.01,,2013-02-25 23:31:00,
2013-02-25 18:41:00,40.0,31.0,29.99,SE,142,1.0,10.0,71,0.00,,,0.01,,2013-02-25 23:41:00,
2013-02-25 18:52:00,40.0,32.0,29.97,SSE,164,2.0,10.0,73,0.00,,,0.01,,2013-02-25 23:52:00,
2013-02-25 19:01:00,39.0,31.0,29.97,SSE,155,3.0,8.0,73,0.00,,,0.01,,2013-02-26 00:01:00,
2013-02-25 19:12:00,39.0,31.0,29.97,SSE,155,3.0,8.0,73,0.00,,,0.01,,2013-02-26 00:12:00,
2013-02-25 19:22:00,39.0,31.0,29.97,South,171,0.0,9.0,74,0.00,,,0.01,,2013-02-26 00:22:00,
2013-02-25 19:32:00,38.0,30.0,29.97,SSE,150,4.0,13.0,74,0.00,,,0.01,,2013-02-26 00:32:00,
2013-02-25 19:42:00,38.0,30.0,29.97,SSE,150,4.0,13.0,74,0.00,,,0.01,,2013-02-26 00:42:00,
2013-02-25 19:52:00,38.0,30.0,29.97,SSE,153,1.0,8.0,74,0.00,,,0.01,,2013-02-26 00:52:00,
2013-02-25 20:02:00,38.0,30.0,29.96,SSE,158,4.0,10.0,74,0.00,,,0.01,,2013-02-26 01:02:00,
2013-02-25 20:11:00,38.0,30.0,29.96,SSE,158,4.0,10.0,74,0.00,,,0.01,,2013-02-26 01:11:00,
2013-02-25 20:21:00,37.0,29.0,29.94,SSE,158,5.0,14.0,74,0.00,,,0.01,,2013-02-26 01:21:00,
2013-02-25 20:31:00,37.0,29.0,29.95,SSE,165,5.0,12.0,74,0.00,,,0.01,,2013-02-26 01:31:00,
2013-02-25 20:41:00,37.0,29.0,29.95,SSE,165,5.0,12.0,74,0.00,,,0.01,,2013-02-26 01:41:00,
2013-02-25 20:52:00,37.0,29.0,29.94,SSE,148,4.0,13.0,74,0.00,,,0.01,,2013-02-26 01:52:00,
2013-02-25 21:01:00,37.0,30.0,29.94,ESE,113,3.0,10.0,75,0.00,,,0.01,,2013-02-26 02:01:00,
2013-02-25 21:11:00,37.0,30.0,29.94,ESE,113,3.0,10.0,75,0.00,,,0.01,,2013-02-26 02:11:00,
2013-02-25 21:21:00,37.0,30.0,29.95,SE,134,4.0,17.0,75,0.00,,,0.01,,2013-02-26 02:21:00,
2013-02-25 21:32:00,37.0,30.0,29.98,SE,146,5.0,15.0,76,0.00,,,0.01,,2013-02-26 02:32:00,
2013-02-25 21:41:00,37.0,30.0,29.98,SE,146,5.0,15.0,76,0.00,,,0.01,,2013-02-26 02:41:00,
2013-02-25 21:52:00,37.0,30.0,29.97,South,179,3.0,8.0,77,0.00,,,0.01,,2013-02-26 02:52:00,
2013-02-25 22:01:00,36.0,30.0,29.96,SE,134,6.0,14.0,78,0.00,,,0.01,,2013-02-26 03:01:00,
2013-02-25 22:11:00,36.0,30.0,29.96,SE,134,6.0,14.0,78,0.00,,,0.01,,2013-02-26 03:11:00,
2013-02-25 22:21:00,36.0,30.0,29.96,SSW,196,3.0,11.0,78,0.00,,,0.01,,2013-02-26 03:21:00,
2013-02-25 22:32:00,36.0,30.0,29.94,South,173,3.0,11.0,79,0.00,,,0.01,,2013-02-26 03:32:00,
2013-02-25 22:41:00,36.0,30.0,29.94,South,173,3.0,11.0,79,0.00,,,0.01,,2013-02-26 03:41:00,
2013-02-25 22:52:00,36.0,30.0,29.93,ESE,102,7.0,14.0,80,0.00,,,0.01,,2013-02-26 03:52:00,
2013-02-25 23:01:00,36.0,30.0,29.93,SSE,168,4.0,16.0,79,0.00,,,0.01,,2013-02-26 04:01:00,
2013-02-25 23:11:00,36.0,30.0,29.93,SSE,168,4.0,16.0,79,0.00,,,0.01,,2013-02-26 04:11:00,
2013-02-25 23:21:00,36.0,30.0,29.92,SE,133,4.0,12.0,79,0.00,,,0.01,,2013-02-26 04:21:00,
2013-02-25 23:32:00,36.0,30.0,29.91,SSE,163,3.0,10.0,80,0.00,,,0.01,,2013-02-26 04:32:00,
2013-02-25 23:42:00,36.0,30.0,29.91,SSE,163,3.0,10.0,80,0.00,,,0.01,,2013-02-26 04:42:00,
2013-02-25 23:52:00,36.0,30.0,29.91,SSE,155,4.0,12.0,79,0.00,,,0.01,,2013-02-26 04:52:00,